Погода Пенхамона неделю

Гуанахуато, Мексика

05 - 11 марта
  • 05марта
    Сегодня
    +10°
    +30°
    Облачно с прояснениями
    ВремяПогодаТемператураВлажностьДавлениеВетер, м/сВероятность осадков
    00:00Ясно и безоблачно+17°C31 %620 мм2.5 м/с2 %
    03:00Ясно и безоблачно+12°C36 %618 мм2.2 м/с2 %
    06:00Ясно и безоблачно+11°C44 %618 мм1.8 м/с2 %
    09:00Ясно и безоблачно+17°C31 %621 мм1.4 м/с2 %
    12:00Практически безоблачно+26°C14 %623 мм2.6 м/с2 %
    15:00Облачно с прояснениями+29°C8 %621 мм4.2 м/с2 %
    18:00Ясно и безоблачно+27°C8 %620 мм4.3 м/с2 %
    21:00Небольшая облачность+20°C15 %619 мм2.9 м/с2 %
  • 06марта
    Среда
    +11°
    +31°
    Небольшая облачность
    ВремяПогодаТемператураВлажностьДавлениеВетер, м/сВероятность осадков
    00:00Ясно и безоблачно+17°C28 %619 мм2.7 м/с2 %
    03:00Ясно и безоблачно+13°C32 %617 мм2.9 м/с2 %
    06:00Ясно и безоблачно+11°C41 %617 мм1.6 м/с2 %
    09:00Ясно и безоблачно+17°C31 %621 мм1.3 м/с2 %
    12:00Практически безоблачно+27°C17 %623 мм2.4 м/с2 %
    15:00Небольшая облачность+30°C13 %621 мм3.4 м/с2 %
    18:00Ясно и безоблачно+29°C14 %620 мм4.0 м/с2 %
    21:00Ясно и безоблачно+20°C26 %619 мм3.0 м/с2 %
  • 07марта
    Четверг
    +10°
    +30°
    Ясно и безоблачно
    ВремяПогодаТемператураВлажностьДавлениеВетер, м/сВероятность осадков
    00:00Ясно и безоблачно+18°C32 %619 мм3.4 м/с2 %
    03:00Ясно и безоблачно+14°C44 %618 мм2.7 м/с2 %
    06:00Ясно и безоблачно+12°C45 %618 мм2.2 м/с2 %
    09:00Ясно и безоблачно+17°C41 %621 мм2.0 м/с2 %
    12:00Ясно и безоблачно+26°C21 %623 мм3.8 м/с2 %
    15:00Ясно и безоблачно+29°C16 %621 мм4.9 м/с2 %
    18:00Ясно и безоблачно+28°C17 %621 мм5.3 м/с2 %
    21:00Практически безоблачно+20°C20 %620 мм3.1 м/с2 %
  • 08марта
    Пятница
    +10°
    +31°
    Ясно и безоблачно
    ВремяПогодаТемператураВлажностьДавлениеВетер, м/сВероятность осадков
    00:00Небольшая облачность+17°C34 %620 мм2.9 м/с2 %
    03:00Практически безоблачно+13°C51 %619 мм2.5 м/с2 %
    06:00Небольшая облачность+11°C49 %617 мм2.2 м/с2 %
    09:00Облачно с прояснениями+17°C38 %621 мм1.4 м/с2 %
    12:00Небольшая облачность+27°C15 %623 мм4.1 м/с2 %
    15:00Ясно и безоблачно+30°C11 %621 мм5.4 м/с2 %
    18:00Небольшая облачность+28°C18 %621 мм5.4 м/с2 %
    21:00Небольшая облачность+20°C26 %620 мм2.9 м/с2 %
Мы используем cookies
Соглашаюсь